createdAt,value
2022-08-05T00:02:07.957Z,63.30
2022-08-05T00:04:38.513Z,63.50
2022-08-05T00:07:27.309Z,63.80
2022-08-05T00:09:53.790Z,64.20
2022-08-05T00:12:21.437Z,64.90
2022-08-05T00:14:51.627Z,66.00
2022-08-05T00:17:20.189Z,67.00
2022-08-05T00:20:02.153Z,68.00
2022-08-05T00:22:30.043Z,68.80
2022-08-05T00:24:57.942Z,69.60
2022-08-05T00:27:36.305Z,70.30
2022-08-05T00:30:04.822Z,70.70
2022-08-05T00:32:37.889Z,70.70
2022-08-05T00:35:07.947Z,71.70
2022-08-05T00:37:52.633Z,72.20
2022-08-05T00:40:27.571Z,72.70
2022-08-05T00:43:00.145Z,73.10
2022-08-05T00:45:37.909Z,73.50
2022-08-05T00:48:07.351Z,73.70
2022-08-05T00:50:34.789Z,73.80
2022-08-05T00:53:02.643Z,73.80
2022-08-05T00:55:42.521Z,73.80
2022-08-05T00:58:11.612Z,73.80
2022-08-05T01:00:39.553Z,73.80
2022-08-05T01:03:07.661Z,73.40
2022-08-05T01:05:35.217Z,72.60
2022-08-05T01:08:30.393Z,71.30
2022-08-05T01:10:56.532Z,70.30
2022-08-05T01:13:57.432Z,69.20
2022-08-05T01:16:52.194Z,68.70
2022-08-05T01:19:30.118Z,68.10
2022-08-05T01:22:24.421Z,67.80
2022-08-05T01:25:39.945Z,67.70
2022-08-05T01:28:18.864Z,68.10
2022-08-05T01:31:07.432Z,68.70
2022-08-05T01:33:49.214Z,69.10
2022-08-05T01:36:28.448Z,69.60
2022-08-05T01:38:56.397Z,70.00
2022-08-05T01:41:30.925Z,70.70
2022-08-05T01:44:01.006Z,71.50
2022-08-05T01:46:42.777Z,72.00
2022-08-05T01:49:24.046Z,72.60
2022-08-05T01:52:00.983Z,73.00
2022-08-05T01:54:45.898Z,73.50
2022-08-05T01:58:10.983Z,74.10
2022-08-05T02:00:06.417Z,74.20
2022-08-05T02:02:54.911Z,74.40
2022-08-05T02:05:31.628Z,74.50
2022-08-05T02:08:02.061Z,74.80
2022-08-05T02:10:34.815Z,75.00
2022-08-05T02:13:27.801Z,75.20
2022-08-05T02:16:10.488Z,75.50
2022-08-05T02:18:50.261Z,75.40
2022-08-05T02:21:20.014Z,76.00
2022-08-05T02:23:51.497Z,76.50
2022-08-05T02:26:26.441Z,77.20
2022-08-05T02:28:55.974Z,77.90
2022-08-05T02:31:28.371Z,78.40
2022-08-05T02:33:59.492Z,79.20
2022-08-05T02:36:31.451Z,79.80
2022-08-05T02:39:00.220Z,80.50
2022-08-05T02:41:36.392Z,81.40
2022-08-05T02:44:17.769Z,82.90
2022-08-05T02:46:58.817Z,84.60
2022-08-05T02:49:36.935Z,86.30
2022-08-05T02:52:13.611Z,87.80
2022-08-05T02:54:57.763Z,89.20
2022-08-05T02:58:09.760Z,90.00
2022-08-05T03:00:13.257Z,90.30
2022-08-05T03:02:42.927Z,90.40
2022-08-05T03:05:13.609Z,90.80
2022-08-05T03:08:06.838Z,91.10
2022-08-05T03:10:28.861Z,91.50
2022-08-05T03:15:23.680Z,92.40
2022-08-05T03:17:53.924Z,92.80
2022-08-05T03:20:22.073Z,93.20
2022-08-05T03:22:50.674Z,93.60
2022-08-05T03:25:32.441Z,93.90
2022-08-05T03:28:02.802Z,94.30
2022-08-05T03:30:34.010Z,94.80
2022-08-05T03:33:02.894Z,95.20
2022-08-05T03:35:30.976Z,95.50
2022-08-05T03:38:01.237Z,95.90
2022-08-05T03:40:32.110Z,96.20
2022-08-05T03:43:15.728Z,96.20
2022-08-05T03:45:55.228Z,96.30
2022-08-05T03:48:25.518Z,96.50
2022-08-05T03:50:53.926Z,96.80
2022-08-05T03:55:49.744Z,97.10
2022-08-05T03:56:41.979Z,97.50
2022-08-05T03:59:14.537Z,97.90
2022-08-05T04:01:49.609Z,98.00
2022-08-05T04:04:21.321Z,98.00
2022-08-05T04:06:51.050Z,98.30
2022-08-05T04:09:20.191Z,98.60
2022-08-05T04:11:53.022Z,99.00
2022-08-05T04:14:29.789Z,99.30
2022-08-05T04:17:02.869Z,99.60
2022-08-05T04:19:30.266Z,99.90
2022-08-05T04:22:09.131Z,99.90
2022-08-05T04:24:52.707Z,99.90
2022-08-05T04:27:42.195Z,99.90
2022-08-05T04:30:08.461Z,99.90
2022-08-05T04:32:35.813Z,99.90
2022-08-05T04:35:03.788Z,99.90
2022-08-05T04:38:02.710Z,99.90
2022-08-05T04:40:19.830Z,99.90
2022-08-05T04:42:46.702Z,99.90
2022-08-05T04:45:22.752Z,99.90
2022-08-05T04:48:16.394Z,99.90
2022-08-05T04:51:01.737Z,99.90
2022-08-05T04:53:33.584Z,99.90
2022-08-05T04:56:33.341Z,99.90
2022-08-05T04:58:50.181Z,99.90
2022-08-05T05:02:06.279Z,99.90
2022-08-05T05:04:05.017Z,99.90
2022-08-05T05:06:39.941Z,99.90
2022-08-05T05:09:17.294Z,99.90
2022-08-05T05:11:55.710Z,99.90
2022-08-05T05:14:27.799Z,99.90
2022-08-05T05:17:00.207Z,99.90
2022-08-05T05:19:36.195Z,99.90
2022-08-05T05:22:22.907Z,99.90
2022-08-05T05:24:50.861Z,99.90
2022-08-05T05:27:44.567Z,99.90
2022-08-05T05:30:29.645Z,99.90
2022-08-05T05:33:00.068Z,99.90
2022-08-05T05:35:31.647Z,99.90
2022-08-05T05:38:09.347Z,99.90
2022-08-05T05:40:50.013Z,99.90
2022-08-05T05:43:27.806Z,99.90
2022-08-05T05:46:13.734Z,99.90
2022-08-05T05:48:43.929Z,99.90
2022-08-05T05:51:14.792Z,99.90
2022-08-05T05:53:46.029Z,99.90
2022-08-05T05:56:32.289Z,99.90
2022-08-05T05:59:03.209Z,99.90
2022-08-05T06:01:37.715Z,99.90
2022-08-05T06:04:14.927Z,99.90
2022-08-05T06:06:47.529Z,99.90
2022-08-05T06:09:16.705Z,99.90
2022-08-05T06:11:59.633Z,99.90
2022-08-05T06:14:29.672Z,99.90
2022-08-05T06:16:56.812Z,99.90
2022-08-05T06:19:32.933Z,99.90
2022-08-05T06:22:02.906Z,99.90
2022-08-05T06:24:30.333Z,99.90
2022-08-05T06:26:57.944Z,99.90
2022-08-05T06:29:49.502Z,99.90
2022-08-05T06:32:25.377Z,99.90
2022-08-05T06:34:57.024Z,99.90
2022-08-05T06:37:57.651Z,99.90
2022-08-05T06:40:13.607Z,99.90
2022-08-05T06:42:43.158Z,99.90
2022-08-05T06:45:20.630Z,99.90
2022-08-05T06:48:37.079Z,99.90
2022-08-05T06:50:35.355Z,99.90
2022-08-05T06:53:11.277Z,99.90
2022-08-05T06:55:48.784Z,99.90
2022-08-05T06:58:30.067Z,99.90
2022-08-05T07:01:03.216Z,99.90
2022-08-05T07:03:32.803Z,99.90
2022-08-05T07:06:06.114Z,99.90
2022-08-05T07:08:45.180Z,99.90
2022-08-05T07:11:15.963Z,99.90
2022-08-05T07:14:01.972Z,99.90
2022-08-05T07:17:59.722Z,99.90
2022-08-05T07:22:27.895Z,99.90
2022-08-05T07:24:57.925Z,99.90
2022-08-05T07:27:27.689Z,99.90
2022-08-05T07:30:27.213Z,99.90
2022-08-05T07:32:57.648Z,99.90
2022-08-05T07:36:01.558Z,99.90
2022-08-05T07:38:12.446Z,99.90
2022-08-05T07:41:00.314Z,99.90
2022-08-05T07:43:31.450Z,99.90
2022-08-05T07:46:01.696Z,99.90
2022-08-05T07:49:01.955Z,99.90
2022-08-05T07:51:23.334Z,99.90
2022-08-05T07:54:03.410Z,99.90
2022-08-05T07:57:00.587Z,99.90
2022-08-05T07:59:16.829Z,99.90
2022-08-05T08:01:51.971Z,99.90
2022-08-05T08:04:37.593Z,99.90
2022-08-05T08:07:07.141Z,99.90
2022-08-05T08:09:34.656Z,99.90
2022-08-05T08:12:07.754Z,99.90
2022-08-05T08:14:42.731Z,99.90
2022-08-05T08:17:16.043Z,99.90
2022-08-05T08:20:22.067Z,99.90
2022-08-05T08:22:32.345Z,99.90
2022-08-05T08:25:03.255Z,99.90
2022-08-05T08:27:40.153Z,99.90
2022-08-05T08:30:19.562Z,99.90
2022-08-05T08:32:57.092Z,99.90
2022-08-05T08:35:26.603Z,99.90
2022-08-05T08:37:56.362Z,99.90
2022-08-05T08:40:23.817Z,99.90
2022-08-05T08:42:52.995Z,99.90
2022-08-05T08:45:26.644Z,99.90
2022-08-05T08:48:12.670Z,99.90
2022-08-05T08:51:03.751Z,99.90
2022-08-05T08:53:37.233Z,99.90
2022-08-05T08:56:06.181Z,99.90
2022-08-05T08:58:43.347Z,99.90
2022-08-05T09:01:15.983Z,99.90
2022-08-05T09:03:52.852Z,99.90
2022-08-05T09:06:27.795Z,99.90
2022-08-05T09:08:55.759Z,99.90
2022-08-05T09:11:51.980Z,99.90
2022-08-05T09:14:54.728Z,99.90
2022-08-05T09:16:58.375Z,99.60
2022-08-05T09:19:28.018Z,99.30
2022-08-05T09:22:21.772Z,99.00
2022-08-05T09:25:01.450Z,98.60
2022-08-05T09:28:04.384Z,98.60
2022-08-05T09:30:23.329Z,98.60
2022-08-05T09:32:51.555Z,98.50
2022-08-05T09:35:26.784Z,98.40
2022-08-05T09:38:16.488Z,98.30
2022-08-05T09:40:44.579Z,98.10
2022-08-05T09:43:28.076Z,97.80
2022-08-05T09:46:27.972Z,97.40
2022-08-05T09:49:08.105Z,97.10
2022-08-05T09:51:48.858Z,97.10
2022-08-05T09:54:28.799Z,97.00
2022-08-05T09:56:57.617Z,96.90
2022-08-05T09:59:28.389Z,96.80
2022-08-05T10:01:57.770Z,96.40
2022-08-05T10:04:36.225Z,96.10
2022-08-05T10:07:19.968Z,95.90
2022-08-05T10:10:14.392Z,95.60
2022-08-05T10:12:49.250Z,95.40
2022-08-05T10:15:34.292Z,95.20
2022-08-05T10:18:13.856Z,94.90
2022-08-05T10:20:47.808Z,94.90
2022-08-05T10:23:56.090Z,95.00
2022-08-05T10:26:13.819Z,95.00
2022-08-05T10:28:46.206Z,94.90
2022-08-05T10:32:48.662Z,94.70
2022-08-05T10:34:08.920Z,94.70
2022-08-05T10:36:40.840Z,94.70
2022-08-05T10:39:24.309Z,94.70
2022-08-05T10:42:11.419Z,94.70
2022-08-05T10:44:43.328Z,94.50
2022-08-05T10:47:26.219Z,94.30
2022-08-05T10:50:33.151Z,94.30
2022-08-05T10:53:00.938Z,94.20
2022-08-05T10:55:28.094Z,94.10
2022-08-05T10:58:11.254Z,94.00
2022-08-05T11:00:42.225Z,93.90
2022-08-05T11:03:25.859Z,93.80
2022-08-05T11:06:22.891Z,93.70
2022-08-05T11:09:13.152Z,93.60
2022-08-05T11:11:52.589Z,93.50
2022-08-05T11:17:57.209Z,93.30
2022-08-05T11:20:41.790Z,93.30
2022-08-05T11:23:33.724Z,93.20
2022-08-05T11:26:17.267Z,93.20
2022-08-05T11:29:06.937Z,93.20
2022-08-05T11:31:56.968Z,93.10
2022-08-05T11:34:38.393Z,93.20
2022-08-05T11:38:27.962Z,93.30
2022-08-05T11:39:55.244Z,93.40
2022-08-05T11:42:28.738Z,93.30
2022-08-05T11:45:05.645Z,93.20
2022-08-05T11:47:49.074Z,93.00
2022-08-05T11:50:18.597Z,93.00
2022-08-05T11:52:48.466Z,92.80
2022-08-05T11:55:16.641Z,92.70
2022-08-05T11:58:10.968Z,92.40
2022-08-05T12:00:38.578Z,92.00
2022-08-05T12:03:23.998Z,91.40
2022-08-05T12:06:05.824Z,90.70
2022-08-05T12:08:34.355Z,90.10
2022-08-05T12:11:09.540Z,89.50
2022-08-05T12:14:03.928Z,88.30
2022-08-05T12:16:45.233Z,87.00
2022-08-05T12:20:25.399Z,86.50
2022-08-05T12:22:09.669Z,86.40
2022-08-05T12:24:41.902Z,86.50
2022-08-05T12:27:32.634Z,86.60
2022-08-05T12:30:03.371Z,86.60
2022-08-05T12:32:33.940Z,86.20
2022-08-05T12:35:04.101Z,85.70
2022-08-05T12:37:31.877Z,85.50
2022-08-05T12:40:03.389Z,85.40
2022-08-05T12:42:37.424Z,85.50
2022-08-05T12:45:08.730Z,85.30
2022-08-05T12:47:37.193Z,85.20
2022-08-05T12:50:17.746Z,84.90
2022-08-05T12:52:59.386Z,84.20
2022-08-05T12:55:32.930Z,84.50
2022-08-05T12:58:48.635Z,83.50
2022-08-05T13:02:03.686Z,83.00
2022-08-05T13:03:43.302Z,82.70
2022-08-05T13:06:17.829Z,82.30
2022-08-05T13:08:51.567Z,81.90
2022-08-05T13:11:57.883Z,81.30
2022-08-05T13:14:24.776Z,80.90
2022-08-05T13:17:04.095Z,80.30
2022-08-05T13:19:52.414Z,80.30
2022-08-05T13:22:28.095Z,80.50
2022-08-05T13:24:57.453Z,81.30
2022-08-05T13:27:46.863Z,82.50
2022-08-05T13:30:34.188Z,84.00
2022-08-05T13:33:02.401Z,84.70
2022-08-05T13:35:42.479Z,84.70
2022-08-05T13:38:20.490Z,84.60
2022-08-05T13:40:57.321Z,84.80
2022-08-05T13:43:24.136Z,85.10
2022-08-05T13:46:11.681Z,85.40
2022-08-05T13:48:58.518Z,85.90
2022-08-05T13:51:36.577Z,86.40
2022-08-05T13:54:12.247Z,87.40
2022-08-05T13:56:45.318Z,88.70
2022-08-05T13:59:20.391Z,90.00
2022-08-05T14:01:57.717Z,90.50
2022-08-05T14:04:50.572Z,91.20
2022-08-05T14:07:59.995Z,91.30
2022-08-05T14:10:18.697Z,91.70
2022-08-05T14:12:48.942Z,92.00
2022-08-05T14:16:08.645Z,92.40
2022-08-05T14:18:04.293Z,92.70
2022-08-05T14:20:32.080Z,92.70
2022-08-05T14:22:59.906Z,92.60
2022-08-05T14:25:28.081Z,92.30
2022-08-05T14:27:55.978Z,92.10
2022-08-05T14:30:22.895Z,92.00
2022-08-05T14:32:53.759Z,91.90
2022-08-05T14:35:22.788Z,91.80
2022-08-05T14:37:53.589Z,91.60
2022-08-05T14:40:24.402Z,91.30
2022-08-05T14:42:54.675Z,91.10
2022-08-05T14:45:22.682Z,90.90
2022-08-05T14:48:04.857Z,90.70
2022-08-05T14:50:33.265Z,90.60
2022-08-05T14:53:06.948Z,90.60
2022-08-05T14:55:39.429Z,90.50
2022-08-05T14:58:12.247Z,90.40
2022-08-05T15:00:58.459Z,90.50
2022-08-05T15:03:33.370Z,90.50
2022-08-05T15:06:08.098Z,91.00
2022-08-05T15:09:01.520Z,90.80
2022-08-05T15:11:53.037Z,90.80
2022-08-05T15:14:20.172Z,90.90
2022-08-05T15:17:01.153Z,91.00
2022-08-05T15:19:28.000Z,91.20
2022-08-05T15:21:57.919Z,91.40
2022-08-05T15:24:27.416Z,91.60
2022-08-05T15:26:54.140Z,91.80
2022-08-05T15:29:22.940Z,91.80
2022-08-05T15:31:52.832Z,91.70
2022-08-05T15:34:33.238Z,91.60
2022-08-05T15:37:06.225Z,91.50
2022-08-05T15:41:00.430Z,91.40
2022-08-05T15:42:53.437Z,91.40
2022-08-05T15:45:10.494Z,91.30
2022-08-05T15:47:41.596Z,91.30
2022-08-05T15:50:09.646Z,91.40
2022-08-05T15:52:53.847Z,91.50
2022-08-05T15:55:24.479Z,91.70
2022-08-05T15:57:52.310Z,91.70
2022-08-05T16:00:26.011Z,91.70
2022-08-05T16:03:00.026Z,91.70
2022-08-05T16:05:28.381Z,91.70
2022-08-05T16:07:55.437Z,91.80
2022-08-05T16:10:25.600Z,91.80
2022-08-05T16:12:55.984Z,91.90
2022-08-05T16:15:23.518Z,91.80
2022-08-05T16:17:57.790Z,92.10
2022-08-05T16:20:25.591Z,91.50
2022-08-05T16:22:54.673Z,91.60
2022-08-05T16:25:21.479Z,91.00
2022-08-05T16:28:04.953Z,90.90
2022-08-05T16:30:34.181Z,90.70
2022-08-05T16:33:03.116Z,90.70
2022-08-05T16:35:32.472Z,90.50
2022-08-05T16:38:16.455Z,90.40
2022-08-05T16:40:55.271Z,90.50
2022-08-05T16:43:28.742Z,90.50
2022-08-05T16:46:03.582Z,90.50
2022-08-05T16:48:37.547Z,90.60
2022-08-05T16:51:09.726Z,90.70
2022-08-05T16:54:04.808Z,90.70
2022-08-05T16:56:26.764Z,90.70
2022-08-05T16:58:54.010Z,90.80
2022-08-05T17:01:21.030Z,90.60
2022-08-05T17:03:48.638Z,90.60
2022-08-05T17:06:16.404Z,90.60
2022-08-05T17:08:52.777Z,90.50
2022-08-05T17:11:23.517Z,90.40
2022-08-05T17:14:00.594Z,90.40
2022-08-05T17:16:36.473Z,90.40
2022-08-05T17:19:09.371Z,90.30
2022-08-05T17:21:39.796Z,90.50
2022-08-05T17:24:18.696Z,90.20
2022-08-05T17:26:57.381Z,90.10
2022-08-05T17:29:32.823Z,90.10
2022-08-05T17:32:01.307Z,90.10
2022-08-05T17:34:30.219Z,90.10
2022-08-05T17:36:59.064Z,90.10
2022-08-05T17:39:33.265Z,90.00
2022-08-05T17:42:19.607Z,89.90
2022-08-05T17:44:50.472Z,89.70
2022-08-05T17:47:22.261Z,89.60
2022-08-05T17:49:59.571Z,89.30
2022-08-05T17:52:30.724Z,89.10
2022-08-05T17:54:58.077Z,89.00
2022-08-05T17:57:24.787Z,88.90
2022-08-05T18:00:03.563Z,88.60
2022-08-05T18:02:34.282Z,88.20
2022-08-05T18:05:06.245Z,88.00
2022-08-05T18:07:41.379Z,88.20
2022-08-05T18:10:20.443Z,88.70
2022-08-05T18:12:49.060Z,89.20
2022-08-05T18:15:15.927Z,89.80
2022-08-05T18:18:00.632Z,90.10
2022-08-05T18:20:31.547Z,90.20
2022-08-05T18:23:00.659Z,90.30
2022-08-05T18:25:39.111Z,90.40
2022-08-05T18:28:07.286Z,90.40
2022-08-05T18:30:39.061Z,90.20
2022-08-05T18:33:08.411Z,90.10
2022-08-05T18:35:59.640Z,90.00
2022-08-05T18:38:26.481Z,90.00
2022-08-05T18:41:55.402Z,90.00
2022-08-05T18:43:42.982Z,89.90
2022-08-05T18:46:20.028Z,89.80
2022-08-05T18:48:51.919Z,89.80
2022-08-05T18:52:06.555Z,89.80
2022-08-05T18:54:31.383Z,90.00
2022-08-05T18:57:02.406Z,90.00
2022-08-05T18:59:43.686Z,90.00
2022-08-05T19:02:27.524Z,89.90
2022-08-05T19:05:02.932Z,90.00
2022-08-05T19:07:45.852Z,89.80
2022-08-05T19:10:14.313Z,89.70
2022-08-05T19:12:41.609Z,89.70
2022-08-05T19:15:25.177Z,89.50
2022-08-05T19:18:08.498Z,89.40
2022-08-05T19:20:37.021Z,89.40
2022-08-05T19:23:08.736Z,89.50
2022-08-05T19:26:01.949Z,89.50
2022-08-05T19:28:31.124Z,89.40
2022-08-05T19:31:00.961Z,89.20
2022-08-05T19:33:35.245Z,89.00
2022-08-05T19:36:07.160Z,88.90
2022-08-05T19:38:36.636Z,88.50
2022-08-05T19:41:09.016Z,88.40
2022-08-05T19:44:06.462Z,88.20
2022-08-05T19:46:30.048Z,88.10
2022-08-05T19:49:01.257Z,88.10
2022-08-05T19:52:05.364Z,88.10
2022-08-05T19:54:25.536Z,88.10
2022-08-05T19:56:54.318Z,88.10
2022-08-05T19:59:54.890Z,87.90
2022-08-05T20:02:08.120Z,87.70
2022-08-05T20:04:34.918Z,87.60
2022-08-05T20:07:02.001Z,87.40
2022-08-05T20:09:28.893Z,87.20
2022-08-05T20:12:15.672Z,87.10
2022-08-05T20:14:42.424Z,87.10
2022-08-05T20:17:09.983Z,87.20
2022-08-05T20:19:41.415Z,87.10
2022-08-05T20:22:09.673Z,87.20
2022-08-05T20:24:36.631Z,87.10
2022-08-05T20:27:11.349Z,87.10
2022-08-05T20:29:39.660Z,87.30
2022-08-05T20:32:06.663Z,87.40
2022-08-05T20:34:33.449Z,87.60
2022-08-05T20:37:01.024Z,87.70
2022-08-05T20:39:36.589Z,87.80
2022-08-05T20:42:04.775Z,88.00
2022-08-05T20:44:33.099Z,88.10
2022-08-05T20:47:07.366Z,88.20
2022-08-05T20:49:39.611Z,88.20
2022-08-05T20:52:07.759Z,88.30
2022-08-05T20:54:42.942Z,88.40
2022-08-05T20:57:24.571Z,88.50
2022-08-05T21:00:40.422Z,88.50
2022-08-05T21:03:01.470Z,88.60
2022-08-05T21:05:48.168Z,88.70
2022-08-05T21:08:15.241Z,88.60
2022-08-05T21:10:48.693Z,88.50
2022-08-05T21:13:26.048Z,88.40
2022-08-05T21:15:54.642Z,88.40
2022-08-05T21:18:23.379Z,88.30
2022-08-05T21:20:50.306Z,88.20
2022-08-05T21:23:17.323Z,88.30
2022-08-05T21:25:44.814Z,88.10
2022-08-05T21:28:12.143Z,88.10
2022-08-05T21:30:39.915Z,88.10
2022-08-05T21:33:11.268Z,88.10
2022-08-05T21:35:58.458Z,88.00
2022-08-05T21:38:26.736Z,87.90
2022-08-05T21:40:54.063Z,87.80
2022-08-05T21:43:24.876Z,87.70
2022-08-05T21:45:57.415Z,87.70
2022-08-05T21:48:24.784Z,87.70
2022-08-05T21:50:53.044Z,87.70
2022-08-05T21:53:21.592Z,87.70
2022-08-05T21:56:06.258Z,87.80
2022-08-05T21:58:42.117Z,87.70
2022-08-05T22:01:10.874Z,87.70
2022-08-05T22:03:51.872Z,87.60
2022-08-05T22:06:22.606Z,87.80
2022-08-05T22:09:01.409Z,87.80
2022-08-05T22:11:40.592Z,87.80
2022-08-05T22:14:32.931Z,87.80
2022-08-05T22:16:57.939Z,88.60
2022-08-05T22:20:00.767Z,87.90
2022-08-05T22:22:12.749Z,88.00
2022-08-05T22:25:00.863Z,88.00
2022-08-05T22:28:11.309Z,88.10
2022-08-05T22:30:56.154Z,88.10
2022-08-05T22:33:56.630Z,88.10
2022-08-05T22:36:14.242Z,88.10
2022-08-05T22:38:42.575Z,88.00
2022-08-05T22:41:10.314Z,87.90
2022-08-05T22:43:38.210Z,87.90
2022-08-05T22:46:13.367Z,87.70
2022-08-05T22:48:41.818Z,87.50
2022-08-05T22:51:15.983Z,87.60
2022-08-05T22:53:50.404Z,87.50
2022-08-05T22:56:17.798Z,87.50
2022-08-05T22:58:58.270Z,87.40
2022-08-05T23:01:50.749Z,87.50
2022-08-05T23:04:13.888Z,87.40
2022-08-05T23:06:41.507Z,87.40
2022-08-05T23:09:27.861Z,87.30
2022-08-05T23:11:56.124Z,87.10
2022-08-05T23:14:31.773Z,87.70
2022-08-05T23:17:18.607Z,87.50
2022-08-05T23:19:56.563Z,86.50
2022-08-05T23:22:27.328Z,86.40
2022-08-05T23:24:54.573Z,86.20
2022-08-05T23:27:22.764Z,86.00
2022-08-05T23:29:50.929Z,86.00
2022-08-05T23:32:22.954Z,85.90
2022-08-05T23:34:50.869Z,85.70
2022-08-05T23:37:17.854Z,85.50
2022-08-05T23:39:53.532Z,85.30
2022-08-05T23:42:23.442Z,85.20
2022-08-05T23:44:54.279Z,85.10
2022-08-05T23:47:21.348Z,85.40
2022-08-05T23:49:52.171Z,84.80
2022-08-05T23:52:29.374Z,85.40
2022-08-05T23:55:00.270Z,84.50
2022-08-05T23:57:28.360Z,84.30
